Time;durP1;ratioP1;P1;durP2;ratioP2;P2;SDS_P1;SDS_P2;PMS_P1;PMS_P2;Temp;Humidity;BMP_temperature;BMP_pressure;BME280_temperature;BME280_humidity;BME280_pressure;Samples;Min_cycle;Max_cycle;Signal;HPM_P1;HPM_P2
2022/08/09 00:09:49;;;;;;;8.80;7.93;;;15.20;99.90;;;;;;20940320;28;20429;-57
2022/08/09 00:19:52;;;;;;;8.68;7.78;;;15.50;99.90;;;;;;20897476;28;20536;-57
2022/08/09 00:29:55;;;;;;;11.13;9.15;;;15.60;99.90;;;;;;20897176;28;20041;-57
2022/08/09 00:39:58;;;;;;;10.48;9.13;;;15.60;99.90;;;;;;21001834;28;20048;-55
2022/08/09 00:50:00;;;;;;;12.73;9.88;;;15.40;99.90;;;;;;21044542;28;20093;-56
2022/08/09 01:00:07;;;;;;;12.55;10.20;;;15.10;99.90;;;;;;21080258;28;20061;-58
2022/08/09 01:10:37;;;;;;;11.73;10.48;;;14.80;99.90;;;;;;21143334;28;20101;-58
2022/08/09 01:20:59;;;;;;;12.85;10.98;;;14.70;99.90;;;;;;21110101;28;20028;-56
2022/08/09 01:31:05;;;;;;;12.65;10.45;;;14.60;99.90;;;;;;21036118;28;20497;-57
2022/08/09 01:41:29;;;;;;;14.00;10.70;;;14.50;99.90;;;;;;21043173;28;20500;-57
2022/08/09 01:51:34;;;;;;;15.38;11.38;;;14.60;99.90;;;;;;21140217;28;20028;-57
2022/08/09 02:01:38;;;;;;;13.32;10.35;;;14.50;99.90;;;;;;21131606;28;20079;-59
2022/08/09 02:11:40;;;;;;;13.57;10.98;;;14.60;99.90;;;;;;21055006;28;20036;-56
2022/08/09 02:21:46;;;;;;;12.10;10.07;;;14.70;99.90;;;;;;21054802;28;20055;-55
2022/08/09 02:31:50;;;;;;;10.10;9.10;;;14.70;99.90;;;;;;21053335;28;20248;-54
2022/08/09 02:42:02;;;;;;;11.45;9.45;;;14.80;99.90;;;;;;21052188;28;20065;-55
2022/08/09 02:52:06;;;;;;;11.82;9.27;;;14.80;99.90;;;;;;21052294;28;20532;-56
2022/08/09 03:02:13;;;;;;;11.10;9.95;;;14.60;99.90;;;;;;21064817;28;20051;-56
2022/08/09 03:12:16;;;;;;;12.73;11.20;;;14.50;99.90;;;;;;21133471;28;20100;-57
2022/08/09 03:22:19;;;;;;;13.05;10.60;;;14.20;99.90;;;;;;21133661;28;20065;-56
2022/08/09 03:32:23;;;;;;;12.45;10.50;;;14.00;99.90;;;;;;21099248;28;20048;-57
2022/08/09 03:42:26;;;;;;;13.82;11.75;;;14.00;99.90;;;;;;21050287;28;20542;-56
2022/08/09 03:52:29;;;;;;;17.92;12.75;;;14.10;99.90;;;;;;21049306;28;20390;-55
2022/08/09 04:02:32;;;;;;;15.25;12.23;;;14.00;99.90;;;;;;21066897;28;20341;-55
2022/08/09 04:12:46;;;;;;;14.00;11.55;;;14.10;99.90;;;;;;21048063;28;20089;-56
2022/08/09 04:22:48;;;;;;;12.95;11.55;;;14.40;99.90;;;;;;21086836;28;20035;-60
2022/08/09 04:32:52;;;;;;;16.02;12.65;;;14.50;99.90;;;;;;21145711;28;20043;-55
2022/08/09 04:42:55;;;;;;;15.43;12.90;;;14.60;99.90;;;;;;21146285;28;20036;-57
2022/08/09 04:52:57;;;;;;;11.55;10.35;;;14.70;99.90;;;;;;21145349;28;20024;-60
2022/08/09 05:03:05;;;;;;;10.48;9.32;;;14.80;99.90;;;;;;21080441;28;20029;-57
2022/08/09 05:13:07;;;;;;;12.85;11.10;;;14.90;99.90;;;;;;21060065;28;20089;-57
2022/08/09 05:23:10;;;;;;;13.38;11.75;;;14.70;99.90;;;;;;21059317;28;20040;-56
2022/08/09 05:33:12;;;;;;;10.85;9.75;;;14.50;99.90;;;;;;21076738;28;20063;-57
2022/08/09 05:43:15;;;;;;;8.48;7.57;;;14.70;99.90;;;;;;21141821;28;20438;-60
2022/08/09 05:53:17;;;;;;;10.55;8.63;;;15.40;99.90;;;;;;21140994;28;20553;-57
2022/08/09 06:03:20;;;;;;;9.73;8.73;;;15.90;99.90;;;;;;21118049;28;20442;-58
2022/08/09 06:13:23;;;;;;;8.88;7.97;;;16.30;99.90;;;;;;21055194;28;20097;-57
2022/08/09 06:23:28;;;;;;;10.90;8.90;;;16.40;99.90;;;;;;21054253;28;20101;-60
2022/08/09 06:33:31;;;;;;;7.35;6.57;;;16.20;99.90;;;;;;21036878;28;20052;-59
2022/08/09 06:43:35;;;;;;;4.88;4.32;;;18.20;99.90;;;;;;21052285;28;20105;-55
2022/08/09 06:53:38;;;;;;;4.20;3.80;;;21.60;99.90;;;;;;21051998;28;20397;-57
2022/08/09 07:03:41;;;;;;;5.03;4.63;;;24.10;99.90;;;;;;21006596;28;20089;-57
2022/08/09 07:13:43;;;;;;;6.13;5.53;;;25.00;99.40;;;;;;21051779;28;20035;-57
2022/08/09 07:23:46;;;;;;;5.22;4.72;;;25.10;98.80;;;;;;21050134;28;20101;-58
2022/08/09 07:33:48;;;;;;;5.38;4.53;;;24.50;99.60;;;;;;21049064;28;20044;-57
2022/08/09 07:43:52;;;;;;;6.13;5.45;;;25.00;98.30;;;;;;21132469;28;20032;-61
2022/08/09 07:53:55;;;;;;;5.45;4.63;;;25.30;97.90;;;;;;21111288;28;20406;-58
2022/08/09 08:03:58;;;;;;;5.55;4.90;;;26.00;97.60;;;;;;21080073;28;20032;-58
2022/08/09 08:14:00;;;;;;;5.85;4.53;;;26.30;96.20;;;;;;21147830;28;20365;-57
2022/08/09 08:24:03;;;;;;;6.57;5.90;;;26.00;95.70;;;;;;21147035;28;20065;-57
2022/08/09 08:34:05;;;;;;;7.18;6.20;;;24.80;97.00;;;;;;21145261;28;20059;-57
2022/08/09 08:44:12;;;;;;;7.90;7.10;;;23.40;99.70;;;;;;21145922;28;20031;-57
2022/08/09 08:54:15;;;;;;;6.88;6.28;;;23.30;99.90;;;;;;21126654;28;20040;-56
2022/08/09 09:04:19;;;;;;;8.43;7.35;;;22.50;99.90;;;;;;21003838;28;20036;-57
2022/08/09 09:14:24;;;;;;;8.30;6.72;;;22.20;99.90;;;;;;21059760;28;20097;-57
2022/08/09 09:24:29;;;;;;;7.30;6.65;;;22.70;99.90;;;;;;21058410;28;20405;-57
2022/08/09 09:34:32;;;;;;;7.20;6.50;;;24.00;99.90;;;;;;21058396;28;20097;-57
2022/08/09 09:44:35;;;;;;;8.95;6.95;;;25.10;98.20;;;;;;21057782;28;20497;-57
2022/08/09 09:54:42;;;;;;;7.60;6.90;;;24.10;96.80;;;;;;21056269;28;20538;-57
2022/08/09 10:05:00;;;;;;;9.15;7.03;;;23.40;99.90;;;;;;21054380;28;20100;-57
2022/08/09 10:15:05;;;;;;;8.02;5.97;;;24.60;99.40;;;;;;21121205;28;20540;-57
2022/08/09 10:25:09;;;;;;;7.32;6.63;;;24.40;98.00;;;;;;21136636;28;20093;-59
2022/08/09 10:35:12;;;;;;;9.00;6.53;;;25.70;97.20;;;;;;21136522;28;20373;-56
2022/08/09 10:45:16;;;;;;;6.47;5.88;;;25.80;96.20;;;;;;21137226;28;20121;-57
2022/08/09 10:55:19;;;;;;;7.82;5.90;;;25.40;97.00;;;;;;21134910;28;20027;-59
2022/08/09 11:05:22;;;;;;;7.38;6.05;;;24.80;97.30;;;;;;20999996;28;20089;-57
2022/08/09 11:15:25;;;;;;;9.45;6.65;;;24.10;98.80;;;;;;21050706;28;20032;-57
2022/08/09 11:25:30;;;;;;;7.15;6.45;;;24.30;97.40;;;;;;21050690;28;20097;-57
2022/08/09 11:35:36;;;;;;;8.30;6.07;;;24.80;98.30;;;;;;21016747;28;20047;-57
2022/08/09 11:45:52;;;;;;;11.47;6.43;;;25.00;99.50;;;;;;21133701;28;20553;-57
2022/08/09 11:55:58;;;;;;;6.40;4.78;;;26.10;95.70;;;;;;21117568;28;20035;-57
2022/08/09 12:06:08;;;;;;;8.25;6.53;;;26.60;96.50;;;;;;21089168;28;20036;-57
2022/08/09 12:16:17;;;;;;;8.18;6.18;;;26.70;93.80;;;;;;21047998;28;20439;-57
2022/08/09 12:26:21;;;;;;;6.20;5.57;;;26.80;95.30;;;;;;21061922;28;20065;-57
2022/08/09 12:36:24;;;;;;;8.27;6.70;;;26.70;95.10;;;;;;21130246;28;20078;-56
2022/08/09 12:46:27;;;;;;;7.30;6.25;;;27.20;92.60;;;;;;21139951;28;20548;-57
2022/08/09 12:56:30;;;;;;;6.10;5.47;;;26.60;93.20;;;;;;21135310;28;20062;-56
2022/08/09 13:06:45;;;;;;;7.68;5.65;;;26.40;96.20;;;;;;21060866;28;20040;-56
2022/08/09 13:16:53;;;;;;;6.72;5.93;;;26.60;94.10;;;;;;21060115;28;20090;-56
2022/08/09 13:26:56;;;;;;;6.55;5.90;;;27.00;92.80;;;;;;21042501;28;20089;-56
2022/08/09 13:37:01;;;;;;;6.18;5.43;;;27.00;95.20;;;;;;21000500;28;20040;-56
2022/08/09 13:47:11;;;;;;;7.70;5.60;;;28.10;92.30;;;;;;21057810;28;20059;-56
2022/08/09 13:57:14;;;;;;;6.25;5.25;;;27.70;92.70;;;;;;21056789;28;20040;-56
2022/08/09 14:07:17;;;;;;;5.75;4.80;;;28.00;92.30;;;;;;21028224;28;20039;-56
2022/08/09 14:17:19;;;;;;;6.93;6.00;;;27.10;93.30;;;;;;21138743;28;20484;-56
2022/08/09 14:27:22;;;;;;;5.78;4.60;;;27.70;91.00;;;;;;21137499;28;20057;-55
2022/08/09 14:37:24;;;;;;;6.53;5.20;;;28.50;92.80;;;;;;21136917;28;20413;-56
2022/08/09 14:47:27;;;;;;;7.20;5.95;;;28.60;90.70;;;;;;21136456;28;20059;-55
2022/08/09 14:57:30;;;;;;;4.93;4.45;;;28.20;90.90;;;;;;21101226;28;20463;-55
2022/08/09 15:07:33;;;;;;;7.43;6.68;;;28.30;90.70;;;;;;21050797;28;20062;-55
2022/08/09 15:17:35;;;;;;;6.78;5.20;;;28.30;90.50;;;;;;21051096;28;20493;-55
2022/08/09 15:27:38;;;;;;;7.07;4.30;;;28.20;90.00;;;;;;21050394;28;20105;-54
2022/08/09 15:37:40;;;;;;;7.68;6.00;;;27.50;90.40;;;;;;20980559;28;20106;-51
2022/08/09 15:47:43;;;;;;;5.72;5.20;;;26.80;90.00;;;;;;21049334;28;20465;-54
2022/08/09 15:57:48;;;;;;;5.35;4.85;;;26.70;90.90;;;;;;21055433;28;20484;-50
2022/08/09 16:07:50;;;;;;;5.47;4.82;;;25.80;92.10;;;;;;21074764;28;20101;-53
2022/08/09 16:17:53;;;;;;;7.57;5.70;;;23.40;94.80;;;;;;21052677;28;20093;-53
2022/08/09 16:27:57;;;;;;;8.05;7.28;;;22.60;95.90;;;;;;21064182;28;20040;-55
2022/08/09 16:37:59;;;;;;;7.65;6.70;;;21.80;97.40;;;;;;21061924;28;20052;-55
2022/08/09 16:48:03;;;;;;;10.15;6.75;;;20.60;99.90;;;;;;21062741;28;20101;-55
2022/08/09 16:58:06;;;;;;;7.70;6.90;;;19.90;99.90;;;;;;21043162;28;20043;-56
2022/08/09 17:08:08;;;;;;;6.95;6.25;;;19.60;99.90;;;;;;21061741;28;20036;-60
2022/08/09 17:18:11;;;;;;;9.27;7.07;;;19.30;99.90;;;;;;21059925;28;20040;-56
2022/08/09 17:28:14;;;;;;;9.63;7.78;;;18.90;99.90;;;;;;21059020;28;20538;-55
2022/08/09 17:38:17;;;;;;;8.18;7.00;;;18.40;99.90;;;;;;20960755;28;20562;-56
2022/08/09 17:48:19;;;;;;;9.15;7.63;;;18.00;99.90;;;;;;21057923;28;20036;-55
2022/08/09 17:58:22;;;;;;;8.90;7.78;;;17.80;99.90;;;;;;21056925;28;20032;-53
2022/08/09 18:08:25;;;;;;;11.52;7.63;;;17.60;99.90;;;;;;20992213;28;20081;-56
2022/08/09 18:18:28;;;;;;;8.95;7.45;;;17.50;99.90;;;;;;21121716;28;20084;-52
2022/08/09 18:28:30;;;;;;;9.93;8.38;;;17.40;99.90;;;;;;21137921;28;20039;-56
2022/08/09 18:38:32;;;;;;;9.15;7.60;;;17.30;99.90;;;;;;21136041;28;20052;-54
2022/08/09 18:48:38;;;;;;;9.15;8.02;;;17.00;99.90;;;;;;21136280;28;20545;-54
2022/08/09 18:58:45;;;;;;;9.17;8.23;;;16.70;99.90;;;;;;21123884;28;20105;-54
2022/08/09 19:08:48;;;;;;;11.40;9.02;;;16.50;99.90;;;;;;21068219;28;20089;-54
2022/08/09 19:18:51;;;;;;;12.20;9.18;;;16.30;99.90;;;;;;21050755;28;20048;-55
2022/08/09 19:28:53;;;;;;;12.43;9.57;;;16.20;99.90;;;;;;21046287;28;20385;-52
2022/08/09 19:38:56;;;;;;;10.88;9.00;;;16.10;99.90;;;;;;21045675;28;20074;-54
2022/08/09 19:48:59;;;;;;;12.90;9.18;;;15.90;99.90;;;;;;21046650;28;20036;-52
2022/08/09 19:59:02;;;;;;;10.85;8.98;;;15.80;99.90;;;;;;21065294;28;20404;-55
2022/08/09 20:09:11;;;;;;;9.40;7.90;;;15.80;99.90;;;;;;21013022;28;20417;-55
2022/08/09 20:19:14;;;;;;;10.35;7.13;;;16.10;99.90;;;;;;21051562;28;20040;-55
2022/08/09 20:29:18;;;;;;;8.80;7.35;;;16.10;99.90;;;;;;21067572;28;20086;-53
2022/08/09 20:39:20;;;;;;;6.78;6.07;;;16.10;99.90;;;;;;20938382;28;20049;-55
2022/08/09 20:49:24;;;;;;;5.18;4.68;;;15.90;99.90;;;;;;20895570;28;20036;-60
2022/08/09 20:59:26;;;;;;;4.70;4.20;;;15.70;99.90;;;;;;20895065;28;20432;-52
2022/08/09 21:09:30;;;;;;;4.15;3.50;;;15.70;99.90;;;;;;20895378;28;20448;-53
2022/08/09 21:19:33;;;;;;;4.55;3.50;;;15.70;99.90;;;;;;20902491;28;20033;-53
2022/08/09 21:29:36;;;;;;;4.63;3.28;;;15.70;99.90;;;;;;20892711;28;20029;-52
2022/08/09 21:39:38;;;;;;;4.80;3.60;;;16.00;99.90;;;;;;20947323;28;20092;-51
2022/08/09 21:49:40;;;;;;;3.63;3.33;;;16.10;99.90;;;;;;21121589;28;20039;-60
2022/08/09 21:59:43;;;;;;;4.15;3.40;;;16.10;99.90;;;;;;21140092;28;20031;-60
2022/08/09 22:09:46;;;;;;;4.88;3.90;;;16.00;99.90;;;;;;21064511;28;20032;-52
2022/08/09 22:19:49;;;;;;;6.85;4.13;;;16.10;99.90;;;;;;21053819;28;20517;-53
2022/08/09 22:29:52;;;;;;;8.35;5.18;;;15.90;99.90;;;;;;21054631;28;20055;-54
2022/08/09 22:39:55;;;;;;;7.53;5.90;;;15.70;99.90;;;;;;20978196;28;20044;-54
2022/08/09 22:49:58;;;;;;;7.90;6.00;;;15.50;99.90;;;;;;20968207;28;20067;-54
2022/08/09 23:00:01;;;;;;;7.28;6.55;;;15.40;99.90;;;;;;20967709;28;20241;-54
2022/08/09 23:10:05;;;;;;;9.98;6.50;;;15.40;99.90;;;;;;20892927;28;20181;-54
2022/08/09 23:20:10;;;;;;;7.53;5.63;;;15.40;99.90;;;;;;20852146;28;20098;-53
2022/08/09 23:30:12;;;;;;;6.75;4.63;;;15.50;99.90;;;;;;20883831;28;20551;-59
2022/08/09 23:40:15;;;;;;;8.77;5.10;;;15.40;99.90;;;;;;21010552;28;20048;-54
2022/08/09 23:50:18;;;;;;;7.32;4.38;;;15.30;99.90;;;;;;21049268;28;20028;-52
